Time;durP1;ratioP1;P1;durP2;ratioP2;P2;SDS_P1;SDS_P2;PMS_P1;PMS_P2;Temp;Humidity;BMP_temperature;BMP_pressure;BME280_temperature;BME280_humidity;BME280_pressure;Samples;Min_cycle;Max_cycle;Signal;HPM_P1;HPM_P2
2021/03/23 00:03:31;;;;;;;27.53;11.23;;;;;;;3.62;56.96;100998.80;5150550;56;1138933;-79
2021/03/23 00:08:40;;;;;;;22.83;10.00;;;;;;;3.50;57.26;101005.85;5150693;56;1138390;-80
2021/03/23 00:13:48;;;;;;;27.00;9.83;;;;;;;3.40;57.55;101000.58;5150276;56;1138422;-78
2021/03/23 00:18:54;;;;;;;22.77;8.60;;;;;;;3.31;57.70;101000.50;5150669;56;1136409;-77
2021/03/23 00:24:00;;;;;;;11.73;5.20;;;;;;;3.17;57.80;101002.36;5150161;56;1136356;-78
2021/03/23 00:29:06;;;;;;;26.43;8.90;;;;;;;3.06;58.24;100993.22;5150245;56;1137347;-78
2021/03/23 00:34:11;;;;;;;14.98;5.60;;;;;;;3.00;58.37;100998.70;5154799;56;1136903;-80
2021/03/23 00:39:17;;;;;;;16.93;7.07;;;;;;;2.98;58.76;101013.13;5058514;56;1136382;-81
2021/03/23 00:44:24;;;;;;;15.10;6.47;;;;;;;2.97;59.17;101008.80;5017546;57;1136218;-80
2021/03/23 00:49:29;;;;;;;19.53;6.83;;;;;;;3.03;59.30;101004.66;5089681;56;1137095;-80
2021/03/23 00:54:36;;;;;;;21.50;7.97;;;;;;;3.07;59.42;100999.69;5162906;56;1137006;-79
2021/03/23 00:59:41;;;;;;;22.47;7.73;;;;;;;3.17;59.56;101005.43;5163044;56;1136449;-79
2021/03/23 01:04:47;;;;;;;16.83;5.77;;;;;;;3.26;59.59;100998.97;5162972;56;1136490;-79
2021/03/23 01:09:53;;;;;;;13.47;5.37;;;;;;;3.23;59.67;101003.01;5119537;56;1136519;-78
2021/03/23 01:14:58;;;;;;;15.37;6.57;;;;;;;3.16;60.04;100998.50;5077021;57;1136562;-80
2021/03/23 01:20:07;;;;;;;14.63;6.80;;;;;;;3.13;60.37;100991.62;5077058;57;1136993;-78
2021/03/23 01:25:14;;;;;;;15.80;5.62;;;;;;;3.12;60.70;100988.61;5076765;57;1136387;-79
2021/03/23 01:30:26;;;;;;;13.30;5.90;;;;;;;3.15;61.22;100989.80;5076875;57;1136454;-79
2021/03/23 01:35:32;;;;;;;14.70;5.90;;;;;;;3.17;61.51;100998.44;5057079;56;1136268;-80
2021/03/23 01:40:39;;;;;;;15.20;6.13;;;;;;;3.15;61.63;100996.80;5042675;57;1136839;-78
2021/03/23 01:45:44;;;;;;;20.27;7.53;;;;;;;3.15;61.83;100992.87;5056043;57;1136347;-79
2021/03/23 01:51:00;;;;;;;16.73;6.60;;;;;;;3.17;62.01;101001.51;5055988;57;1136447;-78
2021/03/23 01:56:08;;;;;;;16.27;4.40;;;;;;;3.16;62.46;100999.34;5056362;57;1136422;-80
2021/03/23 02:01:18;;;;;;;10.87;4.73;;;;;;;3.17;62.62;100998.44;5056266;57;1136362;-78
2021/03/23 02:06:46;;;;;;;20.43;8.07;;;;;;;3.20;62.73;101000.09;5055876;57;1136422;-80
2021/03/23 02:11:56;;;;;;;19.67;6.87;;;;;;;3.18;62.80;100992.76;5056131;57;1136751;-79
2021/03/23 02:17:24;;;;;;;18.53;6.80;;;;;;;3.17;62.94;100994.52;5055940;57;1136409;-80
2021/03/23 02:22:36;;;;;;;14.30;6.27;;;;;;;3.17;63.14;100994.52;5055903;57;1136520;-81
2021/03/23 02:27:43;;;;;;;18.40;6.60;;;;;;;3.17;63.26;100995.83;5055823;57;1136313;-80
2021/03/23 02:32:49;;;;;;;24.53;8.27;;;;;;;3.21;63.48;100997.02;5056060;57;1136320;-80
2021/03/23 02:37:55;;;;;;;14.13;6.40;;;;;;;3.22;63.59;101001.30;5046519;57;1136366;-80
2021/03/23 02:43:01;;;;;;;17.83;6.47;;;;;;;3.27;63.81;101001.98;5033084;57;1136988;-81
2021/03/23 02:48:07;;;;;;;12.77;4.63;;;;;;;3.33;63.97;101002.61;5033282;57;1137164;-80
2021/03/23 02:53:12;;;;;;;16.25;5.33;;;;;;;3.38;64.46;101000.63;5033278;57;1136561;-80
2021/03/23 02:58:18;;;;;;;16.23;5.80;;;;;;;3.38;64.46;101000.63;5033065;57;1136747;-80
2021/03/23 03:03:24;;;;;;;14.73;5.47;;;;;;;3.40;64.78;101001.88;5033192;58;1136773;-80
2021/03/23 03:08:29;;;;;;;21.30;6.10;;;;;;;3.39;65.05;101000.18;5032795;57;1136713;-79
2021/03/23 03:13:36;;;;;;;15.70;6.55;;;;;;;3.38;65.29;100998.48;5032737;57;1137105;-80
2021/03/23 03:18:41;;;;;;;16.50;6.00;;;;;;;3.40;65.60;100999.27;5047110;56;1136474;-80
2021/03/23 03:23:47;;;;;;;18.17;6.80;;;;;;;3.44;65.81;101005.63;5150278;56;1136923;-78
2021/03/23 03:28:53;;;;;;;5.97;2.70;;;;;;;3.45;66.08;101000.80;5150118;56;1136774;-80
2021/03/23 03:34:01;;;;;;;14.97;6.53;;;;;;;3.43;67.05;101002.62;5150465;56;1134718;-78
2021/03/23 03:39:07;;;;;;;16.10;6.63;;;;;;;3.41;66.95;101000.97;5153907;56;1142977;-80
2021/03/23 03:44:13;;;;;;;17.40;4.30;;;;;;;3.42;67.26;100994.83;5085538;56;1137104;-80
2021/03/23 03:49:18;;;;;;;20.08;6.80;;;;;;;3.41;68.14;100995.29;5055802;57;1136958;-79
2021/03/23 03:54:24;;;;;;;11.53;5.90;;;;;;;3.43;67.93;101004.38;5052413;57;1136741;-81
2021/03/23 03:59:29;;;;;;;18.87;6.57;;;;;;;3.48;68.21;101015.06;4981205;57;1136344;-80
2021/03/23 04:04:35;;;;;;;15.33;7.00;;;;;;;3.54;68.41;101023.09;5024403;57;1136797;-78
2021/03/23 04:09:41;;;;;;;18.87;5.90;;;;;;;3.64;68.42;101024.90;5075422;57;1136359;-80
2021/03/23 04:14:46;;;;;;;22.50;5.43;;;;;;;3.74;68.63;101022.29;5076424;57;1136351;-80
2021/03/23 04:19:52;;;;;;;20.27;6.53;;;;;;;3.79;68.78;101021.66;5076421;57;1136379;-79
2021/03/23 04:24:57;;;;;;;17.62;6.83;;;;;;;3.81;68.90;101030.30;5076206;57;1136786;-80
2021/03/23 04:30:05;;;;;;;24.27;8.87;;;;;;;3.80;69.20;101027.28;5077089;57;1136510;-81
2021/03/23 04:35:31;;;;;;;20.00;6.90;;;;;;;3.78;69.23;101026.03;5076770;57;1136597;-83
2021/03/23 04:40:38;;;;;;;10.27;5.53;;;;;;;3.82;69.51;101029.34;5073693;57;1136587;-82
2021/03/23 04:45:43;;;;;;;13.70;7.03;;;;;;;3.83;70.04;101034.52;5064970;57;1136683;-79
2021/03/23 04:50:50;;;;;;;16.00;5.40;;;;;;;3.82;70.08;101039.81;5064997;57;1136662;-77
2021/03/23 04:55:57;;;;;;;26.30;10.00;;;;;;;3.90;70.40;101044.29;5064748;57;1136769;-81
2021/03/23 05:01:03;;;;;;;23.57;8.40;;;;;;;3.94;70.42;101047.63;5064846;57;1138400;-80
2021/03/23 05:06:09;;;;;;;23.53;8.57;;;;;;;3.98;70.60;101055.27;5065108;57;1136513;-76
2021/03/23 05:11:20;;;;;;;30.25;9.58;;;;;;;3.98;70.83;101056.58;5064956;57;1136266;-78
2021/03/23 05:16:26;;;;;;;27.03;11.27;;;;;;;4.03;70.63;101061.63;5063047;57;1136531;-79
2021/03/23 05:21:32;;;;;;;20.97;9.47;;;;;;;4.11;70.67;101070.03;5064332;57;1140628;-77
2021/03/23 05:26:39;;;;;;;28.47;9.93;;;;;;;4.11;70.92;101069.58;5064808;57;1136923;-76
2021/03/23 05:31:44;;;;;;;24.33;10.30;;;;;;;4.10;71.21;101074.41;5064785;57;1136538;-77
2021/03/23 05:36:50;;;;;;;21.97;7.67;;;;;;;4.08;71.33;101077.55;5064487;57;1138443;-78
2021/03/23 05:42:30;;;;;;;16.70;8.03;;;;;;;4.12;71.55;101086.13;5060843;57;1136417;-76
2021/03/23 05:47:43;;;;;;;20.67;6.97;;;;;;;4.17;71.62;101089.38;5121026;56;1138495;-77
2021/03/23 05:52:54;;;;;;;24.83;7.93;;;;;;;4.24;71.87;101094.77;5130116;56;1138701;-76
2021/03/23 05:58:02;;;;;;;22.67;9.23;;;;;;;4.22;72.35;101097.45;5129565;57;1136852;-77
2021/03/23 06:03:30;;;;;;;34.04;15.86;;;;;;;4.19;72.66;101101.50;5146487;57;1136432;-79
2021/03/23 06:08:38;;;;;;;35.00;15.03;;;;;;;4.17;73.00;101104.64;5045332;57;1138669;-76
2021/03/23 06:13:50;;;;;;;27.80;9.73;;;;;;;4.19;73.26;101110.66;4965906;58;1138607;-79
2021/03/23 06:19:24;;;;;;;36.37;14.20;;;;;;;4.17;73.93;101112.48;4983323;58;1136975;-77
2021/03/23 06:24:46;;;;;;;16.23;7.47;;;;;;;4.18;74.22;101117.27;4984643;58;1138555;-77
2021/03/23 06:29:59;;;;;;;17.07;6.77;;;;;;;4.21;75.64;101121.92;4983246;58;1137084;-79
2021/03/23 06:35:09;;;;;;;25.32;9.20;;;;;;;4.20;77.11;101117.61;4817027;60;1136632;-77
2021/03/23 06:40:28;;;;;;;32.90;13.13;;;;;;;4.24;76.18;101115.26;4962911;59;1136739;-78
2021/03/23 06:45:40;;;;;;;28.33;9.97;;;;;;;4.29;76.67;101118.12;4962484;58;1138729;-78
2021/03/23 06:50:46;;;;;;;23.70;9.40;;;;;;;4.34;77.84;101123.56;4962857;59;1136839;-76
2021/03/23 06:55:52;;;;;;;26.60;7.83;;;;;;;4.40;78.85;101110.69;4962450;59;1136461;-77
2021/03/23 07:01:19;;;;;;;29.40;10.13;;;;;;;4.46;80.22;101112.56;4962651;59;1136783;-78
2021/03/23 07:06:32;;;;;;;22.70;9.83;;;;;;;4.52;80.68;101112.31;4888307;59;1138486;-79
2021/03/23 07:12:04;;;;;;;38.20;10.97;;;;;;;4.60;80.43;101104.95;4879219;57;1136383;-80
2021/03/23 07:17:21;;;;;;;35.30;13.73;;;;;;;4.72;81.26;101104.91;4976594;57;1138557;-80
2021/03/23 07:22:32;;;;;;;39.83;15.60;;;;;;;4.92;81.80;101105.31;4995686;57;1139066;-79
2021/03/23 07:27:37;;;;;;;39.88;12.85;;;;;;;5.02;80.51;101121.03;4992642;57;1140787;-74
2021/03/23 07:32:47;;;;;;;28.50;10.43;;;;;;;5.08;80.95;101120.73;4994412;57;1138709;-74
2021/03/23 07:38:03;;;;;;;45.73;13.90;;;;;;;5.10;81.09;101132.47;4993961;57;1138491;-74
2021/03/23 07:43:46;;;;;;;28.10;11.67;;;;;;;5.14;81.03;101134.89;4977609;58;1140588;-74
2021/03/23 07:49:07;;;;;;;34.63;13.45;;;;;;;5.23;80.79;101138.86;4971407;57;1140564;-74
2021/03/23 07:54:34;;;;;;;28.70;11.00;;;;;;;5.36;80.56;101147.01;4990309;58;1140569;-75
2021/03/23 07:59:59;;;;;;;29.10;13.47;;;;;;;5.49;80.93;101151.65;4973232;58;1138573;-74
2021/03/23 08:05:12;;;;;;;23.50;8.70;;;;;;;5.63;80.53;101160.19;4945606;58;1140539;-74
2021/03/23 08:10:31;;;;;;;20.97;7.67;;;;;;;5.80;80.66;101171.20;4989053;58;1139025;-76
2021/03/23 08:15:47;;;;;;;28.23;11.13;;;;;;;5.78;80.84;101163.40;4974749;58;1136325;-76
2021/03/23 08:21:00;;;;;;;36.73;12.73;;;;;;;5.85;80.95;101171.35;4888061;59;1140716;-75
2021/03/23 08:26:28;;;;;;;;;;;;;;;5.96;80.60;101178.28;4933395;58;1140907;-78
2021/03/23 08:32:01;;;;;;;19.10;8.33;;;;;;;6.05;80.64;101177.47;4972460;58;974242;-77
2021/03/23 08:37:18;;;;;;;17.43;8.57;;;;;;;6.08;80.84;101179.95;4994686;58;1136637;-77
2021/03/23 08:42:27;;;;;;;22.67;9.73;;;;;;;6.13;80.65;101188.43;4994988;58;1138755;-77
2021/03/23 08:47:43;;;;;;;32.27;10.73;;;;;;;6.19;80.02;101189.45;4962108;58;1138498;-77
2021/03/23 08:52:54;;;;;;;20.63;9.23;;;;;;;6.28;80.04;101196.88;4921288;58;1140443;-77
2021/03/23 08:58:15;;;;;;;19.80;8.10;;;;;;;6.34;79.39;101194.81;4921159;58;1138390;-81
2021/03/23 09:03:43;;;;;;;18.33;8.70;;;;;;;6.41;79.07;101205.03;4921918;58;1139357;-78
2021/03/23 09:08:52;;;;;;;20.67;7.40;;;;;;;6.45;78.89;101213.98;4968950;57;1138539;-76
2021/03/23 09:14:12;;;;;;;20.63;7.13;;;;;;;6.55;78.93;101206.52;4955339;58;1138975;-83
2021/03/23 09:19:41;;;;;;;13.80;6.28;;;;;;;6.68;78.68;101207.59;4962093;58;1138877;-83
2021/03/23 09:24:47;;;;;;;14.93;6.33;;;;;;;6.85;78.22;101211.53;4994488;58;1138632;-86
2021/03/23 09:29:54;;;;;;;19.63;9.17;;;;;;;7.16;78.11;101211.27;4994045;58;1138442;-83
2021/03/23 09:35:20;;;;;;;13.20;5.13;;;;;;;7.46;77.59;101213.59;4994247;58;1138812;-85
2021/03/23 09:40:24;;;;;;;17.32;5.80;;;;;;;7.56;75.72;101205.57;4993150;57;1138387;-86
2021/03/23 09:45:37;;;;;;;9.03;4.78;;;;;;;7.63;75.47;101199.05;4994132;57;1138517;-78
2021/03/23 09:51:02;;;;;;;8.57;4.20;;;;;;;7.72;74.77;101192.42;4994688;57;1136395;-80
2021/03/23 09:56:18;;;;;;;14.37;4.93;;;;;;;7.64;73.06;101197.23;4994722;58;1136707;-78
2021/03/23 10:01:25;;;;;;;8.15;4.80;;;;;;;7.50;73.14;101201.94;4990965;58;1136684;-78
2021/03/23 10:06:47;;;;;;;14.00;6.50;;;;;;;7.44;73.09;101206.23;4994664;58;1136936;-82
2021/03/23 10:11:53;;;;;;;18.83;7.87;;;;;;;7.38;73.39;101196.03;4994376;58;1138583;-77
2021/03/23 10:17:24;;;;;;;14.73;5.20;;;;;;;7.35;73.57;101202.30;4994021;58;1138782;-76
2021/03/23 10:22:37;;;;;;;9.30;3.93;;;;;;;7.32;72.69;101207.75;4994994;58;1136466;-78
2021/03/23 10:27:43;;;;;;;6.03;3.47;;;;;;;7.37;72.95;101202.22;4994493;58;1136383;-78
2021/03/23 10:32:55;;;;;;;7.77;2.10;;;;;;;7.47;72.21;101211.34;4994758;58;1134134;-78
2021/03/23 10:38:22;;;;;;;10.17;4.27;;;;;;;7.48;71.00;101201.67;4995077;58;1134281;-79
2021/03/23 10:43:37;;;;;;;5.07;2.77;;;;;;;7.47;71.34;101204.77;4994633;58;1136382;-76
2021/03/23 10:48:44;;;;;;;4.83;2.03;;;;;;;7.51;70.46;101203.64;4994249;57;1134403;-79
2021/03/23 10:54:16;;;;;;;4.60;1.37;;;;;;;7.62;69.25;101202.62;4990725;58;1137380;-79
2021/03/23 10:59:31;;;;;;;6.08;2.65;;;;;;;7.68;67.86;101206.67;4994061;58;1134405;-79
2021/03/23 11:04:40;;;;;;;8.33;2.40;;;;;;;7.66;68.17;101211.17;4994069;58;1134224;-78
2021/03/23 11:09:47;;;;;;;4.08;1.30;;;;;;;7.67;68.16;101208.46;4976551;58;1134298;-77
2021/03/23 11:14:54;;;;;;;11.43;2.83;;;;;;;7.70;66.60;101207.45;4976470;58;1134414;-77
2021/03/23 11:20:11;;;;;;;10.33;3.03;;;;;;;7.72;68.17;101214.34;4993569;58;1136360;-79
2021/03/23 11:25:23;;;;;;;5.73;2.33;;;;;;;7.81;68.22;101209.48;4994081;58;1141445;-79
2021/03/23 11:30:30;;;;;;;9.50;2.33;;;;;;;7.85;67.58;101210.55;4994144;58;1134386;-79
2021/03/23 11:35:35;;;;;;;8.40;2.97;;;;;;;7.89;67.96;101217.36;4993164;58;1136482;-80
2021/03/23 11:40:42;;;;;;;5.80;2.17;;;;;;;7.89;68.75;101214.73;4994086;58;1134281;-77
2021/03/23 11:45:51;;;;;;;5.33;2.83;;;;;;;7.95;68.35;101214.84;4994239;58;1135217;-80
2021/03/23 11:50:58;;;;;;;8.77;3.17;;;;;;;7.97;68.68;101215.60;4994193;58;1136785;-77
2021/03/23 11:56:04;;;;;;;10.03;3.50;;;;;;;7.95;68.30;101221.42;4994046;58;1134891;-79
2021/03/23 12:01:10;;;;;;;10.53;4.50;;;;;;;8.01;68.23;101222.41;4994381;57;1136452;-79
2021/03/23 12:06:20;;;;;;;13.30;5.73;;;;;;;8.07;68.19;101226.03;4994245;58;1138834;-77
2021/03/23 12:11:57;;;;;;;13.88;6.22;;;;;;;8.00;67.93;101225.98;4993205;58;1136436;-80
2021/03/23 12:17:10;;;;;;;10.13;4.67;;;;;;;7.95;68.40;101226.22;4994066;57;1136993;-77
2021/03/23 12:22:18;;;;;;;7.20;2.50;;;;;;;7.92;67.70;101240.91;4994073;58;1138808;-79
2021/03/23 12:27:24;;;;;;;10.53;4.22;;;;;;;7.88;67.06;101238.52;4994424;58;1134371;-78
2021/03/23 12:32:32;;;;;;;9.70;2.92;;;;;;;7.83;67.35;101240.54;4994285;57;1136518;-79
2021/03/23 12:37:42;;;;;;;8.87;3.57;;;;;;;7.86;67.55;101238.59;4993964;58;1134626;-79
2021/03/23 12:42:51;;;;;;;9.17;2.37;;;;;;;7.93;67.79;101240.44;4994192;58;1136349;-77
2021/03/23 12:47:57;;;;;;;14.90;4.23;;;;;;;7.99;66.32;101240.08;4994152;58;1134696;-79
2021/03/23 12:53:06;;;;;;;4.47;2.90;;;;;;;7.92;66.69;101242.22;4994419;57;1136574;-80
2021/03/23 12:58:20;;;;;;;26.37;10.33;;;;;;;7.86;66.84;101250.45;4994954;58;1134172;-77
2021/03/23 13:03:26;;;;;;;9.93;3.37;;;;;;;7.83;66.54;101253.23;4994938;58;1140708;-80
2021/03/23 13:08:37;;;;;;;6.58;3.67;;;;;;;7.75;66.76;101251.50;4995131;58;1135007;-81
2021/03/23 13:13:49;;;;;;;22.10;7.90;;;;;;;7.71;67.33;101253.91;4994932;58;1134921;-79
2021/03/23 13:18:56;;;;;;;15.10;7.37;;;;;;;7.72;67.18;101247.72;4994840;58;1137080;-77
2021/03/23 13:24:08;;;;;;;8.43;4.27;;;;;;;7.75;67.42;101242.29;4994991;58;1136877;-76
2021/03/23 13:29:14;;;;;;;27.73;14.17;;;;;;;7.71;67.33;101242.91;4995527;58;1134256;-79
2021/03/23 13:34:28;;;;;;;17.83;12.90;;;;;;;7.67;67.65;101245.78;4994765;58;1138671;-77
2021/03/23 13:39:41;;;;;;;54.42;26.02;;;;;;;7.70;67.66;101250.89;4994531;58;1141242;-77
2021/03/23 13:45:21;;;;;;;10.63;5.53;;;;;;;7.63;67.45;101250.39;4994628;58;1138673;-77
2021/03/23 13:50:31;;;;;;;11.35;3.87;;;;;;;7.58;67.40;101251.55;4994830;58;1136569;-80
2021/03/23 13:55:38;;;;;;;9.20;4.87;;;;;;;7.50;67.86;101249.78;5031702;56;1138679;-80
2021/03/23 14:00:48;;;;;;;11.70;5.67;;;;;;;7.47;68.35;101251.28;5076113;57;1134325;-80
2021/03/23 14:05:56;;;;;;;10.17;5.80;;;;;;;7.44;68.59;101246.18;5076089;56;1136654;-77
2021/03/23 14:11:03;;;;;;;9.13;4.73;;;;;;;7.48;68.86;101251.21;5076095;57;1138878;-78
2021/03/23 14:16:10;;;;;;;9.50;5.30;;;;;;;7.47;69.00;101257.41;5076182;57;1134331;-81
2021/03/23 14:21:20;;;;;;;13.40;7.33;;;;;;;7.49;68.98;101252.88;5069567;57;1136366;-79
2021/03/23 14:26:25;;;;;;;14.00;5.73;;;;;;;7.47;69.01;101258.72;5065399;57;1136505;-79
2021/03/23 14:31:31;;;;;;;7.97;4.05;;;;;;;7.43;69.08;101256.31;5065165;57;1136733;-77
2021/03/23 14:36:38;;;;;;;72.17;26.17;;;;;;;7.38;68.98;101261.34;5058855;57;1136439;-82
2021/03/23 14:41:48;;;;;;;38.87;17.87;;;;;;;7.35;69.22;101260.66;5048867;56;1139324;-79
2021/03/23 14:46:53;;;;;;;6.17;4.00;;;;;;;7.35;69.39;101256.70;5097459;56;1138448;-79
2021/03/23 14:52:00;;;;;;;7.87;3.80;;;;;;;7.41;69.33;101257.25;5063749;56;1136315;-80
2021/03/23 14:57:06;;;;;;;11.63;4.47;;;;;;;7.35;69.13;101263.28;5116435;56;1134797;-82
2021/03/23 15:02:14;;;;;;;181.47;86.33;;;;;;;7.32;69.17;101268.73;5089720;56;1137006;-77
2021/03/23 15:07:33;;;;;;;478.60;261.90;;;;;;;7.28;69.27;101272.45;5064013;57;1147243;-78
2021/03/23 15:12:39;;;;;;;150.00;63.30;;;;;;;7.23;69.52;101271.36;5063530;57;1142543;-77
2021/03/23 15:17:44;;;;;;;190.37;66.93;;;;;;;7.20;69.52;101285.98;5076009;56;1143072;-77
2021/03/23 15:22:50;;;;;;;189.23;68.80;;;;;;;7.17;69.63;101290.11;5114007;56;1140426;-79
2021/03/23 15:27:57;;;;;;;20.70;12.17;;;;;;;7.16;69.72;101288.41;5094552;56;1140688;-78
2021/03/23 15:33:03;;;;;;;12.70;5.97;;;;;;;7.21;69.80;101296.89;5077260;56;1140921;-76
2021/03/23 15:38:13;;;;;;;25.20;12.17;;;;;;;7.16;69.88;101282.30;5093827;56;1136458;-77
2021/03/23 15:43:24;;;;;;;76.00;30.88;;;;;;;7.15;69.93;101292.42;5137579;56;1140983;-79
2021/03/23 15:48:30;;;;;;;17.25;8.23;;;;;;;7.15;70.03;101291.11;5097489;56;1139044;-79
2021/03/23 15:53:44;;;;;;;15.13;6.37;;;;;;;7.13;70.12;101299.08;5046956;56;1136978;-79
2021/03/23 15:58:50;;;;;;;48.47;14.93;;;;;;;7.10;70.04;101297.06;5040493;56;1138938;-78
2021/03/23 16:03:56;;;;;;;27.07;11.17;;;;;;;7.08;70.25;101297.59;5034364;57;1139084;-87
2021/03/23 16:09:08;;;;;;;32.30;14.27;;;;;;;7.05;70.28;101308.66;5040018;56;1138562;-83
2021/03/23 16:14:14;;;;;;;30.83;13.37;;;;;;;7.03;70.32;101305.24;5037640;56;1140519;-77
2021/03/23 16:19:25;;;;;;;43.57;17.87;;;;;;;6.98;70.47;101313.00;5100258;56;1138748;-85
2021/03/23 16:24:30;;;;;;;56.50;23.40;;;;;;;6.97;70.51;101315.24;5102791;56;1141269;-85
2021/03/23 16:29:36;;;;;;;26.20;9.80;;;;;;;6.98;70.57;101323.52;5103301;56;1140553;-82
2021/03/23 16:34:42;;;;;;;26.10;8.67;;;;;;;6.91;70.64;101329.53;5104642;56;1136437;-78
2021/03/23 16:39:47;;;;;;;22.70;8.77;;;;;;;6.90;70.81;101334.86;5094800;56;1138510;-82
2021/03/23 16:44:53;;;;;;;21.30;9.10;;;;;;;6.84;71.05;101335.19;5115050;56;1136799;-80
2021/03/23 16:49:59;;;;;;;38.43;12.23;;;;;;;6.80;71.08;101325.73;5119048;56;1138647;-80
2021/03/23 16:55:06;;;;;;;19.83;8.40;;;;;;;6.81;71.13;101333.55;5101736;56;1138868;-82
2021/03/23 17:00:12;;;;;;;37.35;14.40;;;;;;;6.78;71.16;101336.78;5026872;56;1137169;-76
2021/03/23 17:05:19;;;;;;;45.03;16.40;;;;;;;6.80;71.13;101339.73;5035850;56;1140666;-79
2021/03/23 17:10:27;;;;;;;59.77;20.30;;;;;;;6.77;71.17;101342.97;5112257;56;1138661;-77
2021/03/23 17:15:35;;;;;;;21.20;9.88;;;;;;;6.76;71.27;101347.38;4972731;57;1139169;-76
2021/03/23 17:20:45;;;;;;;83.33;46.27;;;;;;;6.78;71.20;101348.62;4969884;57;1138840;-76
2021/03/23 17:25:58;;;;;;;44.83;16.90;;;;;;;6.76;71.32;101359.66;5035720;56;1138815;-76
2021/03/23 17:30:59;;;;;;;57.27;22.50;;;;;;;6.72;71.43;101356.36;5102882;56;1138679;-77
2021/03/23 17:36:09;;;;;;;17.60;7.60;;;;;;;6.68;71.52;101353.48;5127036;57;1140652;-78
2021/03/23 17:41:15;;;;;;;43.43;12.20;;;;;;;6.61;71.90;101360.80;5127710;57;1136489;-77
2021/03/23 17:46:22;;;;;;;394.18;130.60;;;;;;;6.58;72.02;101365.34;5107585;56;1139037;-78
2021/03/23 17:51:28;;;;;;;53.23;20.45;;;;;;;6.56;72.22;101369.84;5126886;57;1145102;-75
2021/03/23 17:56:33;;;;;;;193.83;53.30;;;;;;;6.49;72.36;101372.35;5127537;57;1138800;-76
2021/03/23 18:01:39;;;;;;;32.30;11.10;;;;;;;6.46;72.55;101373.34;5127562;56;1142688;-76
2021/03/23 18:06:45;;;;;;;43.90;19.73;;;;;;;6.43;72.74;101379.20;5128407;56;1138639;-76
2021/03/23 18:11:51;;;;;;;40.80;14.77;;;;;;;6.39;72.91;101378.52;5128401;56;1140580;-76
2021/03/23 18:16:56;;;;;;;22.80;9.70;;;;;;;6.37;73.06;101380.36;5128458;57;1139410;-76
2021/03/23 18:22:02;;;;;;;29.42;11.15;;;;;;;6.33;73.26;101387.52;5128502;57;1136817;-76
2021/03/23 18:27:09;;;;;;;35.57;14.23;;;;;;;6.33;73.27;101385.35;5128284;57;1141273;-76
2021/03/23 18:32:15;;;;;;;33.90;14.97;;;;;;;6.32;73.30;101397.63;5128806;56;1138844;-77
2021/03/23 18:37:20;;;;;;;38.43;19.40;;;;;;;6.32;73.30;101397.63;5090385;56;1140975;-76
2021/03/23 18:42:26;;;;;;;38.30;15.27;;;;;;;6.32;73.30;101397.63;5002536;57;1138940;-76
2021/03/23 18:47:31;;;;;;;44.45;23.15;;;;;;;6.36;73.30;101404.92;5044323;57;1139066;-76
2021/03/23 18:52:39;;;;;;;27.42;12.25;;;;;;;6.37;73.17;101401.84;5044345;58;1140632;-77
2021/03/23 18:57:44;;;;;;;34.67;12.57;;;;;;;6.35;73.31;101405.38;5047246;57;1141162;-77
2021/03/23 19:02:50;;;;;;;27.77;12.17;;;;;;;6.31;73.42;101409.52;5127016;56;1138627;-76
2021/03/23 19:07:56;;;;;;;32.27;12.40;;;;;;;6.29;73.50;101413.53;5126287;57;1140673;-78
2021/03/23 19:13:02;;;;;;;31.00;15.43;;;;;;;6.23;73.63;101405.95;5126918;57;1138426;-77
2021/03/23 19:18:08;;;;;;;36.08;16.30;;;;;;;6.24;73.67;101409.43;5126118;57;1141014;-76
2021/03/23 19:23:17;;;;;;;33.67;15.23;;;;;;;6.24;73.72;101409.43;5126604;57;1141255;-78
2021/03/23 19:28:29;;;;;;;45.13;17.53;;;;;;;6.24;73.79;101410.28;5127255;57;1139137;-78
2021/03/23 19:33:36;;;;;;;42.88;16.73;;;;;;;6.25;73.57;101415.93;5113651;56;1141478;-76
2021/03/23 19:38:41;;;;;;;39.83;12.60;;;;;;;6.21;73.48;101420.07;5127359;57;1138967;-77
2021/03/23 19:43:49;;;;;;;28.87;11.93;;;;;;;6.18;73.56;101417.58;5126728;57;1138671;-77
2021/03/23 19:48:55;;;;;;;31.63;13.37;;;;;;;6.17;73.54;101423.28;5126375;57;1140963;-77
2021/03/23 19:54:02;;;;;;;24.03;10.53;;;;;;;6.15;73.58;101430.84;5126752;57;1138684;-76
2021/03/23 19:59:08;;;;;;;28.35;11.22;;;;;;;6.14;73.63;101439.17;5127305;57;1140866;-78
2021/03/23 20:04:15;;;;;;;32.23;12.03;;;;;;;6.13;73.73;101436.16;5128389;56;1138605;-78
2021/03/23 20:09:20;;;;;;;29.63;9.47;;;;;;;6.12;73.72;101433.13;5130193;56;1138459;-76
2021/03/23 20:14:26;;;;;;;28.97;10.07;;;;;;;6.14;73.62;101431.76;5130072;57;1138356;-76
2021/03/23 20:19:32;;;;;;;25.92;10.95;;;;;;;6.10;73.64;101435.00;5073276;57;1139357;-77
2021/03/23 20:24:37;;;;;;;31.33;13.00;;;;;;;6.07;73.77;101431.66;5045954;58;1143087;-78
2021/03/23 20:29:43;;;;;;;30.57;12.50;;;;;;;6.10;73.65;101429.75;5044809;58;1140800;-78
2021/03/23 20:34:48;;;;;;;45.87;23.43;;;;;;;6.13;73.69;101432.67;5044808;57;1140581;-75
2021/03/23 20:39:54;;;;;;;33.43;14.00;;;;;;;6.09;73.77;101437.23;5043203;58;1138869;-78
2021/03/23 20:44:59;;;;;;;31.83;12.00;;;;;;;6.09;73.67;101435.92;5045937;58;1138432;-79
2021/03/23 20:50:08;;;;;;;96.60;35.20;;;;;;;6.08;73.53;101443.41;5046062;58;1140663;-80
2021/03/23 20:55:15;;;;;;;38.30;16.30;;;;;;;6.10;73.70;101453.84;5046528;58;1138537;-76
2021/03/23 21:00:25;;;;;;;29.53;11.33;;;;;;;6.12;73.62;101449.35;5046505;58;1138675;-78
2021/03/23 21:05:35;;;;;;;15.83;8.33;;;;;;;6.09;73.41;101449.52;5046722;57;1140579;-77
2021/03/23 21:10:49;;;;;;;18.57;9.10;;;;;;;6.05;73.30;101440.05;5078013;57;1137022;-77
2021/03/23 21:15:57;;;;;;;16.77;7.67;;;;;;;5.96;73.36;101447.40;5077993;56;1136323;-77
2021/03/23 21:21:05;;;;;;;20.53;6.07;;;;;;;5.89;73.35;101453.85;5090825;56;1136315;-78
2021/03/23 21:26:13;;;;;;;14.87;6.93;;;;;;;5.83;73.47;101458.02;5082901;56;1136443;-78
2021/03/23 21:31:25;;;;;;;12.30;6.40;;;;;;;5.86;73.41;101458.34;5106659;56;1139066;-79
2021/03/23 21:36:33;;;;;;;14.20;6.93;;;;;;;5.86;73.48;101462.28;5072617;56;1136632;-79
2021/03/23 21:41:43;;;;;;;17.57;6.65;;;;;;;5.87;73.55;101464.84;5121317;56;1136524;-77
2021/03/23 21:46:48;;;;;;;16.70;6.53;;;;;;;5.92;73.43;101468.16;5121129;56;1136539;-78
2021/03/23 21:51:54;;;;;;;12.40;6.20;;;;;;;5.95;73.23;101457.54;5121351;56;1138505;-78
2021/03/23 21:56:59;;;;;;;16.77;7.53;;;;;;;5.94;73.25;101449.73;5111622;56;1136414;-77
2021/03/23 22:02:05;;;;;;;19.80;8.70;;;;;;;5.91;73.31;101453.79;5105147;56;1136918;-76
2021/03/23 22:07:13;;;;;;;57.47;18.93;;;;;;;5.91;73.31;101450.70;5098930;56;1136379;-77
2021/03/23 22:12:18;;;;;;;45.83;15.03;;;;;;;5.94;73.21;101451.04;5056445;57;1141015;-79
2021/03/23 22:17:24;;;;;;;33.00;11.53;;;;;;;5.99;73.14;101447.27;5111415;57;1141124;-79
2021/03/23 22:22:30;;;;;;;16.43;6.67;;;;;;;5.99;73.12;101442.02;5071087;57;1141016;-78
2021/03/23 22:27:36;;;;;;;13.32;6.30;;;;;;;5.97;73.15;101443.86;5114874;57;1136831;-76
2021/03/23 22:32:41;;;;;;;12.65;6.28;;;;;;;5.95;73.22;101450.13;5129574;57;1146253;-76
2021/03/23 22:37:49;;;;;;;13.10;5.50;;;;;;;5.89;73.25;101444.66;5129013;57;1136897;-76
2021/03/23 22:42:54;;;;;;;16.13;6.33;;;;;;;5.89;73.10;101445.98;5103861;57;1138868;-78
2021/03/23 22:48:00;;;;;;;13.60;5.93;;;;;;;5.91;73.15;101441.52;5044103;57;1139110;-79
2021/03/23 22:53:07;;;;;;;11.50;6.27;;;;;;;5.92;73.15;101435.81;5044576;58;1139001;-78
2021/03/23 22:58:13;;;;;;;12.30;6.37;;;;;;;5.92;73.26;101439.75;5043965;58;1137016;-79
2021/03/23 23:03:24;;;;;;;12.27;5.37;;;;;;;5.92;73.24;101445.00;5043979;58;1137005;-77
2021/03/23 23:08:36;;;;;;;11.97;5.23;;;;;;;5.89;73.16;101442.04;5044328;56;1137169;-78
2021/03/23 23:13:43;;;;;;;18.53;7.00;;;;;;;5.89;73.12;101435.94;5044573;56;1138860;-77
2021/03/23 23:18:54;;;;;;;10.47;6.40;;;;;;;5.88;73.16;101435.51;5044069;56;1136859;-78
2021/03/23 23:24:16;;;;;;;14.37;7.03;;;;;;;5.83;73.26;101433.07;5043161;57;1136976;-77